Impacts METAR Board
IDs:

KSTL - St Louis/Lambert Int, MO, US

Updated at: 1400 UTC 10 Aug 2022
Potential Impact None Slight Moderate High
Time 10/02Z 10/03Z 10/04Z 10/05Z 10/06Z 10/07Z 10/08Z 10/09Z 10/10Z 10/11Z 10/12Z 10/13Z 10/14Z
Temp75 74 74 73 72 70 71 70 70 69 69 72 74
Dewpt67 67 67 67 67 66 66 67 66 66 66 67 68
Altim30.07 30.10 30.12 30.13 30.13 30.12 30.12 30.11 30.12 30.14 30.17 30.18 30.19
VIS10 10 10 10 10 10 10 10 10 6 8 9 10
CIG-- -- -- -- -- -- -- -- -- -- 43 27 33
CoverSCTFEWFEWFEWFEWFEWSCTFEWFEWSCTBKNBKNBKN
FltCatVFRVFRVFRVFRVFRVFRVFRVFRVFRVFRVFRMVFRVFR
WX------------------BR------
WDir80801009000330350350007090
WSpd5 5 5 3 0 0 4 3 3 0 0 4 5
WGst-- -- -- -- -- -- -- -- -- -- -- -- --
Raw hourly METARs
KSTL 100151Z 08005KT 10SM FEW030 SCT250 24/19 A3007 RMK AO2 SLP174 T02390194
KSTL 100251Z 08005KT 10SM FEW030 FEW250 23/19 A3010 RMK AO2 SLP184 T02330194 53015
KSTL 100351Z 10005KT 10SM FEW030 FEW250 23/19 A3012 RMK AO2 SLP188 T02330194
KSTL 100451Z 09003KT 10SM FEW050 FEW250 23/19 A3013 RMK AO2 SLP193 T02280194
KSTL 100551Z 00000KT 10SM FEW050 FEW250 22/19 A3013 RMK AO2 SLP192 T02220194 10261 20222 402720222 51009
KSTL 100651Z 00000KT 10SM FEW250 21/19 A3012 RMK AO2 SLP189 T02110189
KSTL 100751Z 33004KT 10SM SCT200 22/19 A3012 RMK AO2 SLP188 T02170189
KSTL 100851Z 35003KT 10SM FEW200 21/19 A3011 RMK AO2 SLP185 T02110194 56007
KSTL 100951Z 35003KT 10SM FEW003 21/19 A3012 RMK AO2 SLP189 T02110189
KSTL 101051Z 00000KT 6SM BR SCT003 SCT045 21/19 A3014 RMK AO2 SLP198 VIS SW-NW 3 T02060189
KSTL 101151Z 00000KT 8SM FEW003 FEW028 BKN043 21/19 A3017 RMK AO2 SLP207 T02060189 10222 20200 53021
KSTL 101251Z 07004KT 9SM FEW003 BKN027 BKN048 22/19 A3018 RMK AO2 SLP211 T02220194
KSTL 101351Z 09005KT 10SM SCT009 BKN033 BKN055 23/20 A3019 RMK AO2 SLP214 T02330200



Page loaded:  14:57 UTC  |   07:57 AM Pacific  |   08:57 AM Mountain  |   09:57 AM Central  |   10:57 AM Eastern

 

ADVISORIES

FORECASTS

FORECASTS

OBSERVATIONS

USER TOOLS

ABOUT US